sensor_id;sensor_type;location;lat;lon;timestamp;pressure;altitude;pressure_sealevel;temperature;humidity
12475;BME280;6302;42.624;23.334;2023-01-29T00:01:18;93283.34;;;-0.95;100.00
12475;BME280;6302;42.624;23.334;2023-01-29T00:03:45;93293.22;;;-0.88;100.00
12475;BME280;6302;42.624;23.334;2023-01-29T00:06:12;93294.22;;;-0.81;100.00
12475;BME280;6302;42.624;23.334;2023-01-29T00:08:38;93299.44;;;-0.81;100.00
12475;BME280;6302;42.624;23.334;2023-01-29T00:11:07;93301.84;;;-0.76;100.00
12475;BME280;6302;42.624;23.334;2023-01-29T00:13:34;93294.00;;;-0.88;100.00
12475;BME280;6302;42.624;23.334;2023-01-29T00:16:02;93301.75;;;-0.79;100.00
12475;BME280;6302;42.624;23.334;2023-01-29T00:18:30;93307.69;;;-0.79;100.00
12475;BME280;6302;42.624;23.334;2023-01-29T00:20:57;93317.34;;;-0.79;100.00
12475;BME280;6302;42.624;23.334;2023-01-29T00:23:24;93307.78;;;-0.87;100.00
12475;BME280;6302;42.624;23.334;2023-01-29T00:25:51;93308.22;;;-0.85;100.00
12475;BME280;6302;42.624;23.334;2023-01-29T00:28:18;93305.16;;;-0.87;100.00
12475;BME280;6302;42.624;23.334;2023-01-29T00:30:45;93318.03;;;-0.91;100.00
12475;BME280;6302;42.624;23.334;2023-01-29T00:33:11;93319.13;;;-0.92;100.00
12475;BME280;6302;42.624;23.334;2023-01-29T00:35:39;93323.13;;;-0.94;100.00
12475;BME280;6302;42.624;23.334;2023-01-29T00:38:07;93300.69;;;-0.99;100.00
12475;BME280;6302;42.624;23.334;2023-01-29T00:40:36;93310.44;;;-0.96;100.00
12475;BME280;6302;42.624;23.334;2023-01-29T00:43:18;93311.97;;;-0.95;100.00
12475;BME280;6302;42.624;23.334;2023-01-29T00:46:03;93321.50;;;-0.99;100.00
12475;BME280;6302;42.624;23.334;2023-01-29T00:48:31;93315.84;;;-1.01;100.00
12475;BME280;6302;42.624;23.334;2023-01-29T00:51:00;93310.63;;;-1.01;100.00
12475;BME280;6302;42.624;23.334;2023-01-29T00:53:27;93316.16;;;-1.02;100.00
12475;BME280;6302;42.624;23.334;2023-01-29T00:55:54;93315.09;;;-1.01;100.00
12475;BME280;6302;42.624;23.334;2023-01-29T00:58:21;93307.16;;;-1.05;100.00
12475;BME280;6302;42.624;23.334;2023-01-29T01:00:53;93311.59;;;-1.05;100.00
12475;BME280;6302;42.624;23.334;2023-01-29T01:03:20;93315.84;;;-1.01;100.00
12475;BME280;6302;42.624;23.334;2023-01-29T01:05:45;93306.72;;;-1.07;100.00
12475;BME280;6302;42.624;23.334;2023-01-29T01:08:14;93305.94;;;-1.07;100.00
12475;BME280;6302;42.624;23.334;2023-01-29T01:10:59;93315.78;;;-1.13;100.00
12475;BME280;6302;42.624;23.334;2023-01-29T01:13:27;93312.53;;;-1.10;100.00
12475;BME280;6302;42.624;23.334;2023-01-29T01:15:54;93320.50;;;-1.06;100.00
12475;BME280;6302;42.624;23.334;2023-01-29T01:18:21;93310.81;;;-1.06;100.00
12475;BME280;6302;42.624;23.334;2023-01-29T01:20:48;93306.47;;;-1.14;100.00
12475;BME280;6302;42.624;23.334;2023-01-29T01:23:18;93312.31;;;-1.17;100.00
12475;BME280;6302;42.624;23.334;2023-01-29T01:25:45;93309.50;;;-1.12;100.00
12475;BME280;6302;42.624;23.334;2023-01-29T01:28:11;93305.72;;;-1.14;100.00
12475;BME280;6302;42.624;23.334;2023-01-29T01:30:38;93319.91;;;-1.12;100.00
12475;BME280;6302;42.624;23.334;2023-01-29T01:33:05;93313.81;;;-1.16;100.00
12475;BME280;6302;42.624;23.334;2023-01-29T01:35:32;93323.56;;;-1.13;100.00
12475;BME280;6302;42.624;23.334;2023-01-29T01:37:59;93308.41;;;-1.11;100.00
12475;BME280;6302;42.624;23.334;2023-01-29T01:40:27;93317.59;;;-1.13;100.00
12475;BME280;6302;42.624;23.334;2023-01-29T01:42:55;93317.19;;;-1.15;100.00
12475;BME280;6302;42.624;23.334;2023-01-29T01:45:25;93307.09;;;-1.17;100.00
12475;BME280;6302;42.624;23.334;2023-01-29T01:47:56;93315.97;;;-1.18;100.00
12475;BME280;6302;42.624;23.334;2023-01-29T01:50:29;93330.16;;;-1.15;100.00
12475;BME280;6302;42.624;23.334;2023-01-29T01:52:59;93319.66;;;-1.19;100.00
12475;BME280;6302;42.624;23.334;2023-01-29T01:55:30;93322.25;;;-1.19;100.00
12475;BME280;6302;42.624;23.334;2023-01-29T01:58:02;93333.03;;;-1.08;100.00
12475;BME280;6302;42.624;23.334;2023-01-29T02:00:30;93333.34;;;-1.10;100.00
12475;BME280;6302;42.624;23.334;2023-01-29T02:02:57;93319.16;;;-1.12;100.00
12475;BME280;6302;42.624;23.334;2023-01-29T02:05:42;93331.81;;;-1.11;100.00
12475;BME280;6302;42.624;23.334;2023-01-29T02:08:31;93323.28;;;-1.11;100.00
12475;BME280;6302;42.624;23.334;2023-01-29T02:11:20;93321.41;;;-1.11;100.00
12475;BME280;6302;42.624;23.334;2023-01-29T02:13:47;93336.59;;;-1.13;100.00
12475;BME280;6302;42.624;23.334;2023-01-29T02:16:18;93331.38;;;-1.13;100.00
12475;BME280;6302;42.624;23.334;2023-01-29T02:18:45;93338.13;;;-1.12;100.00
12475;BME280;6302;42.624;23.334;2023-01-29T02:21:29;93334.50;;;-1.19;100.00
12475;BME280;6302;42.624;23.334;2023-01-29T02:24:20;93346.28;;;-1.22;100.00
12475;BME280;6302;42.624;23.334;2023-01-29T02:26:59;93345.66;;;-1.19;100.00
12475;BME280;6302;42.624;23.334;2023-01-29T02:29:34;93345.00;;;-1.16;100.00
12475;BME280;6302;42.624;23.334;2023-01-29T02:32:14;93347.22;;;-1.06;100.00
12475;BME280;6302;42.624;23.334;2023-01-29T02:34:48;93348.94;;;-1.10;100.00
12475;BME280;6302;42.624;23.334;2023-01-29T02:37:38;93348.94;;;-1.10;100.00
12475;BME280;6302;42.624;23.334;2023-01-29T02:40:14;93352.00;;;-1.08;100.00
12475;BME280;6302;42.624;23.334;2023-01-29T02:42:50;93350.03;;;-1.11;100.00
12475;BME280;6302;42.624;23.334;2023-01-29T02:45:22;93356.31;;;-1.12;100.00
12475;BME280;6302;42.624;23.334;2023-01-29T02:47:56;93360.59;;;-1.16;100.00
12475;BME280;6302;42.624;23.334;2023-01-29T02:50:28;93361.97;;;-1.10;100.00
12475;BME280;6302;42.624;23.334;2023-01-29T02:53:00;93358.72;;;-1.07;100.00
12475;BME280;6302;42.624;23.334;2023-01-29T02:55:32;93361.34;;;-1.07;100.00
12475;BME280;6302;42.624;23.334;2023-01-29T02:58:06;93356.50;;;-1.17;100.00
12475;BME280;6302;42.624;23.334;2023-01-29T03:00:40;93358.97;;;-1.20;100.00
12475;BME280;6302;42.624;23.334;2023-01-29T03:03:12;93370.56;;;-1.18;100.00
12475;BME280;6302;42.624;23.334;2023-01-29T03:05:42;93359.97;;;-1.13;100.00
12475;BME280;6302;42.624;23.334;2023-01-29T03:08:20;93363.22;;;-1.16;100.00
12475;BME280;6302;42.624;23.334;2023-01-29T03:10:51;93367.66;;;-1.16;100.00
12475;BME280;6302;42.624;23.334;2023-01-29T03:13:24;93355.41;;;-1.16;100.00
12475;BME280;6302;42.624;23.334;2023-01-29T03:15:58;93359.97;;;-1.13;100.00
12475;BME280;6302;42.624;23.334;2023-01-29T03:18:30;93366.81;;;-1.08;100.00
12475;BME280;6302;42.624;23.334;2023-01-29T03:21:02;93357.19;;;-1.08;100.00
12475;BME280;6302;42.624;23.334;2023-01-29T03:23:50;93367.78;;;-0.92;100.00
12475;BME280;6302;42.624;23.334;2023-01-29T03:26:42;93365.78;;;-0.87;100.00
12475;BME280;6302;42.624;23.334;2023-01-29T03:29:28;93367.34;;;-0.94;100.00
12475;BME280;6302;42.624;23.334;2023-01-29T03:32:16;93375.91;;;-0.94;100.00
12475;BME280;6302;42.624;23.334;2023-01-29T03:34:47;93366.84;;;-0.88;100.00
12475;BME280;6302;42.624;23.334;2023-01-29T03:37:20;93369.00;;;-0.90;100.00
12475;BME280;6302;42.624;23.334;2023-01-29T03:39:49;93371.53;;;-1.02;100.00
12475;BME280;6302;42.624;23.334;2023-01-29T03:42:22;93375.72;;;-0.89;100.00
12475;BME280;6302;42.624;23.334;2023-01-29T03:44:55;93365.69;;;-0.78;100.00
12475;BME280;6302;42.624;23.334;2023-01-29T03:47:34;93375.31;;;-0.79;100.00
12475;BME280;6302;42.624;23.334;2023-01-29T03:50:10;93371.66;;;-0.78;100.00
12475;BME280;6302;42.624;23.334;2023-01-29T03:52:44;93374.31;;;-0.86;100.00
12475;BME280;6302;42.624;23.334;2023-01-29T03:55:16;93364.88;;;-0.91;100.00
12475;BME280;6302;42.624;23.334;2023-01-29T03:57:50;93365.78;;;-0.87;100.00
12475;BME280;6302;42.624;23.334;2023-01-29T04:00:22;93369.25;;;-0.83;100.00
12475;BME280;6302;42.624;23.334;2023-01-29T04:02:58;93369.25;;;-0.83;100.00
12475;BME280;6302;42.624;23.334;2023-01-29T04:05:34;93368.63;;;-0.80;100.00
12475;BME280;6302;42.624;23.334;2023-01-29T04:08:06;93373.28;;;-0.73;100.00
12475;BME280;6302;42.624;23.334;2023-01-29T04:10:36;93368.19;;;-0.82;100.00
12475;BME280;6302;42.624;23.334;2023-01-29T04:13:05;93370.13;;;-0.79;100.00
12475;BME280;6302;42.624;23.334;2023-01-29T04:15:39;93373.09;;;-0.89;100.00
12475;BME280;6302;42.624;23.334;2023-01-29T04:18:09;93371.28;;;-0.88;100.00
12475;BME280;6302;42.624;23.334;2023-01-29T04:20:36;93372.72;;;-0.79;100.00
12475;BME280;6302;42.624;23.334;2023-01-29T04:23:05;93374.59;;;-0.79;100.00
12475;BME280;6302;42.624;23.334;2023-01-29T04:25:44;93365.31;;;-0.89;100.00
12475;BME280;6302;42.624;23.334;2023-01-29T04:28:16;93385.88;;;-0.75;100.00
12475;BME280;6302;42.624;23.334;2023-01-29T04:30:48;93378.78;;;-0.87;100.00
12475;BME280;6302;42.624;23.334;2023-01-29T04:33:28;93387.91;;;-0.81;100.00
12475;BME280;6302;42.624;23.334;2023-01-29T04:36:13;93381.06;;;-0.85;100.00
12475;BME280;6302;42.624;23.334;2023-01-29T04:38:49;93391.13;;;-0.84;100.00
12475;BME280;6302;42.624;23.334;2023-01-29T04:41:21;93389.03;;;-0.90;100.00
12475;BME280;6302;42.624;23.334;2023-01-29T04:44:00;93388.91;;;-0.94;100.00
12475;BME280;6302;42.624;23.334;2023-01-29T04:46:33;93384.47;;;-0.93;100.00
12475;BME280;6302;42.624;23.334;2023-01-29T04:49:21;93388.91;;;-0.94;100.00
12475;BME280;6302;42.624;23.334;2023-01-29T04:51:57;93390.75;;;-0.94;100.00
12475;BME280;6302;42.624;23.334;2023-01-29T04:54:33;93385.69;;;-0.91;100.00
12475;BME280;6302;42.624;23.334;2023-01-29T04:57:06;93384.22;;;-0.80;100.00
12475;BME280;6302;42.624;23.334;2023-01-29T04:59:39;93383.84;;;-0.90;100.00
12475;BME280;6302;42.624;23.334;2023-01-29T05:02:08;93375.06;;;-0.86;100.00
12475;BME280;6302;42.624;23.334;2023-01-29T05:04:39;93381.19;;;-0.82;100.00
12475;BME280;6302;42.624;23.334;2023-01-29T05:07:11;93390.56;;;-0.89;100.00
12475;BME280;6302;42.624;23.334;2023-01-29T05:09:41;93387.03;;;-0.85;100.00
12475;BME280;6302;42.624;23.334;2023-01-29T05:12:11;93378.50;;;-0.94;100.00
12475;BME280;6302;42.624;23.334;2023-01-29T05:14:41;93381.19;;;-1.02;100.00
12475;BME280;6302;42.624;23.334;2023-01-29T05:17:13;93387.66;;;-0.88;100.00
12475;BME280;6302;42.624;23.334;2023-01-29T05:19:42;93397.63;;;-0.90;100.00
12475;BME280;6302;42.624;23.334;2023-01-29T05:22:11;93389.66;;;-0.93;100.00
12475;BME280;6302;42.624;23.334;2023-01-29T05:24:39;93401.91;;;-0.94;100.00
12475;BME280;6302;42.624;23.334;2023-01-29T05:27:06;93401.03;;;-0.98;100.00
12475;BME280;6302;42.624;23.334;2023-01-29T05:29:56;93401.63;;;-0.92;100.00
12475;BME280;6302;42.624;23.334;2023-01-29T05:32:23;93407.25;;;-0.90;100.00
12475;BME280;6302;42.624;23.334;2023-01-29T05:34:51;93395.81;;;-0.98;100.00
12475;BME280;6302;42.624;23.334;2023-01-29T05:37:18;93408.84;;;-0.98;100.00
12475;BME280;6302;42.624;23.334;2023-01-29T05:39:44;93415.69;;;-0.93;100.00
12475;BME280;6302;42.624;23.334;2023-01-29T05:42:11;93417.22;;;-0.92;100.00
12475;BME280;6302;42.624;23.334;2023-01-29T05:44:38;93417.41;;;-0.97;100.00
12475;BME280;6302;42.624;23.334;2023-01-29T05:47:05;93413.41;;;-0.95;100.00
12475;BME280;6302;42.624;23.334;2023-01-29T05:49:32;93417.97;;;-0.92;100.00
12475;BME280;6302;42.624;23.334;2023-01-29T05:52:00;93416.78;;;-0.94;100.00
12475;BME280;6302;42.624;23.334;2023-01-29T05:54:26;93416.59;;;-0.89;100.00
12475;BME280;6302;42.624;23.334;2023-01-29T05:56:53;93428.19;;;-0.87;100.00
12475;BME280;6302;42.624;23.334;2023-01-29T05:59:20;93425.28;;;-0.85;100.00
12475;BME280;6302;42.624;23.334;2023-01-29T06:01:47;93424.06;;;-0.88;100.00
12475;BME280;6302;42.624;23.334;2023-01-29T06:04:13;93424.59;;;-0.94;100.00
12475;BME280;6302;42.624;23.334;2023-01-29T06:06:40;93427.66;;;-1.01;100.00
12475;BME280;6302;42.624;23.334;2023-01-29T06:09:10;93434.84;;;-0.98;100.00
12475;BME280;6302;42.624;23.334;2023-01-29T06:11:37;93433.34;;;-0.99;100.00
12475;BME280;6302;42.624;23.334;2023-01-29T06:14:04;93441.63;;;-1.05;100.00
12475;BME280;6302;42.624;23.334;2023-01-29T06:16:31;93448.97;;;-1.07;100.00
12475;BME280;6302;42.624;23.334;2023-01-29T06:18:57;93449.56;;;-1.02;100.00
12475;BME280;6302;42.624;23.334;2023-01-29T06:21:24;93453.22;;;-1.03;100.00
12475;BME280;6302;42.624;23.334;2023-01-29T06:23:51;93461.63;;;-0.97;100.00
12475;BME280;6302;42.624;23.334;2023-01-29T06:26:19;93466.06;;;-0.98;100.00
12475;BME280;6302;42.624;23.334;2023-01-29T06:28:47;93470.63;;;-0.95;100.00
12475;BME280;6302;42.624;23.334;2023-01-29T06:31:14;93466.19;;;-0.94;100.00
12475;BME280;6302;42.624;23.334;2023-01-29T06:33:41;93474.44;;;-0.92;100.00
12475;BME280;6302;42.624;23.334;2023-01-29T06:36:08;93477.31;;;-0.85;100.00
12475;BME280;6302;42.624;23.334;2023-01-29T06:38:35;93478.06;;;-0.85;100.00
12475;BME280;6302;42.624;23.334;2023-01-29T06:41:07;93478.34;;;-0.78;100.00
12475;BME280;6302;42.624;23.334;2023-01-29T06:43:36;93487.53;;;-0.80;100.00
12475;BME280;6302;42.624;23.334;2023-01-29T06:46:05;93480.53;;;-0.88;100.00
12475;BME280;6302;42.624;23.334;2023-01-29T06:48:33;93475.09;;;-0.75;100.00
12475;BME280;6302;42.624;23.334;2023-01-29T06:51:01;93484.41;;;-0.74;100.00
12475;BME280;6302;42.624;23.334;2023-01-29T06:53:29;93479.22;;;-0.74;100.00
12475;BME280;6302;42.624;23.334;2023-01-29T06:55:56;93480.84;;;-0.69;100.00
12475;BME280;6302;42.624;23.334;2023-01-29T06:58:23;93490.97;;;-0.68;100.00
12475;BME280;6302;42.624;23.334;2023-01-29T07:00:51;93488.47;;;-0.64;100.00
12475;BME280;6302;42.624;23.334;2023-01-29T07:03:18;93488.75;;;-0.57;100.00
12475;BME280;6302;42.624;23.334;2023-01-29T07:05:50;93483.66;;;-0.53;100.00
12475;BME280;6302;42.624;23.334;2023-01-29T07:08:17;93494.53;;;-0.51;100.00
12475;BME280;6302;42.624;23.334;2023-01-29T07:10:47;93486.03;;;-0.60;100.00
12475;BME280;6302;42.624;23.334;2023-01-29T07:13:13;93493.13;;;-0.49;100.00
12475;BME280;6302;42.624;23.334;2023-01-29T07:15:40;93499.88;;;-0.48;100.00
12475;BME280;6302;42.624;23.334;2023-01-29T07:18:10;93500.38;;;-0.54;100.00
12475;BME280;6302;42.624;23.334;2023-01-29T07:20:38;93493.50;;;-0.59;100.00
12475;BME280;6302;42.624;23.334;2023-01-29T07:23:05;93503.91;;;-0.59;100.00
12475;BME280;6302;42.624;23.334;2023-01-29T07:25:33;93503.16;;;-0.59;100.00
12475;BME280;6302;42.624;23.334;2023-01-29T07:28:00;93509.78;;;-0.62;100.00
12475;BME280;6302;42.624;23.334;2023-01-29T07:30:26;93519.84;;;-0.60;100.00
12475;BME280;6302;42.624;23.334;2023-01-29T07:32:53;93506.97;;;-0.57;100.00
12475;BME280;6302;42.624;23.334;2023-01-29T07:35:21;93507.59;;;-0.39;100.00
12475;BME280;6302;42.624;23.334;2023-01-29T07:37:48;93515.69;;;-0.32;100.00
12475;BME280;6302;42.624;23.334;2023-01-29T07:40:16;93502.66;;;-0.32;100.00
12475;BME280;6302;42.624;23.334;2023-01-29T07:42:43;93508.75;;;-0.28;100.00
12475;BME280;6302;42.624;23.334;2023-01-29T07:45:11;93516.56;;;-0.28;100.00
12475;BME280;6302;42.624;23.334;2023-01-29T07:47:38;93517.88;;;-0.22;100.00
12475;BME280;6302;42.624;23.334;2023-01-29T07:50:06;93520.56;;;-0.10;100.00
12475;BME280;6302;42.624;23.334;2023-01-29T07:52:34;93520.19;;;0.00;100.00
12475;BME280;6302;42.624;23.334;2023-01-29T07:55:00;93524.28;;;0.01;100.00
12475;BME280;6302;42.624;23.334;2023-01-29T07:57:27;93522.16;;;0.15;100.00
12475;BME280;6302;42.624;23.334;2023-01-29T07:59:55;93532.50;;;0.24;100.00
12475;BME280;6302;42.624;23.334;2023-01-29T08:02:21;93532.59;;;0.15;100.00
12475;BME280;6302;42.624;23.334;2023-01-29T08:04:48;93533.63;;;0.02;100.00
12475;BME280;6302;42.624;23.334;2023-01-29T08:07:15;93531.72;;;-0.10;100.00
12475;BME280;6302;42.624;23.334;2023-01-29T08:09:43;93522.06;;;-0.09;100.00
12475;BME280;6302;42.624;23.334;2023-01-29T08:12:10;93532.72;;;-0.02;100.00
12475;BME280;6302;42.624;23.334;2023-01-29T08:14:38;93527.91;;;-0.12;100.00
12475;BME280;6302;42.624;23.334;2023-01-29T08:17:04;93533.97;;;-0.20;100.00
12475;BME280;6302;42.624;23.334;2023-01-29T08:19:31;93498.47;;;-0.45;100.00
12475;BME280;6302;42.624;23.334;2023-01-29T08:21:58;93536.97;;;-0.30;100.00
12475;BME280;6302;42.624;23.334;2023-01-29T08:24:24;93536.38;;;-0.36;100.00
12475;BME280;6302;42.624;23.334;2023-01-29T08:26:53;93533.91;;;-0.32;100.00
12475;BME280;6302;42.624;23.334;2023-01-29T08:29:19;93541.91;;;-0.37;100.00
12475;BME280;6302;42.624;23.334;2023-01-29T08:31:46;93538.22;;;-0.36;100.00
12475;BME280;6302;42.624;23.334;2023-01-29T08:34:13;93541.25;;;-0.34;100.00
12475;BME280;6302;42.624;23.334;2023-01-29T08:36:40;93544.03;;;-0.39;100.00
12475;BME280;6302;42.624;23.334;2023-01-29T08:39:07;93551.56;;;-0.38;100.00
12475;BME280;6302;42.624;23.334;2023-01-29T08:41:34;93556.00;;;-0.38;100.00
12475;BME280;6302;42.624;23.334;2023-01-29T08:44:02;93553.44;;;-0.47;100.00
12475;BME280;6302;42.624;23.334;2023-01-29T08:46:29;93554.97;;;-0.46;100.00
12475;BME280;6302;42.624;23.334;2023-01-29T08:48:56;93557.13;;;-0.48;100.00
12475;BME280;6302;42.624;23.334;2023-01-29T08:51:24;93560.75;;;-0.40;100.00
12475;BME280;6302;42.624;23.334;2023-01-29T08:53:51;93568.25;;;-0.39;100.00
12475;BME280;6302;42.624;23.334;2023-01-29T08:56:17;93565.41;;;-0.25;100.00
12475;BME280;6302;42.624;23.334;2023-01-29T08:58:44;93569.97;;;-0.22;100.00
12475;BME280;6302;42.624;23.334;2023-01-29T09:01:13;93584.09;;;-0.23;100.00
12475;BME280;6302;42.624;23.334;2023-01-29T09:03:39;93574.03;;;-0.33;100.00
12475;BME280;6302;42.624;23.334;2023-01-29T09:06:09;93578.69;;;-0.18;100.00
12475;BME280;6302;42.624;23.334;2023-01-29T09:08:36;93581.28;;;-0.18;100.00
12475;BME280;6302;42.624;23.334;2023-01-29T09:11:03;93581.53;;;-0.11;100.00
12475;BME280;6302;42.624;23.334;2023-01-29T09:13:30;93568.97;;;-0.09;100.00
12475;BME280;6302;42.624;23.334;2023-01-29T09:15:58;93573.78;;;0.01;100.00
12475;BME280;6302;42.624;23.334;2023-01-29T09:18:27;93574.03;;;0.08;100.00
12475;BME280;6302;42.624;23.334;2023-01-29T09:20:54;93576.00;;;0.11;100.00
12475;BME280;6302;42.624;23.334;2023-01-29T09:23:21;93581.59;;;0.01;100.00
12475;BME280;6302;42.624;23.334;2023-01-29T09:25:48;93573.88;;;-0.08;100.00
12475;BME280;6302;42.624;23.334;2023-01-29T09:28:14;93569.00;;;0.03;100.00
12475;BME280;6302;42.624;23.334;2023-01-29T09:30:42;93574.47;;;0.10;100.00
12475;BME280;6302;42.624;23.334;2023-01-29T09:33:09;93566.84;;;0.05;100.00
12475;BME280;6302;42.624;23.334;2023-01-29T09:35:39;93570.47;;;0.13;100.00
12475;BME280;6302;42.624;23.334;2023-01-29T09:38:06;93566.06;;;0.25;100.00
12475;BME280;6302;42.624;23.334;2023-01-29T09:40:36;93568.44;;;0.18;100.00
12475;BME280;6302;42.624;23.334;2023-01-29T09:43:12;93559.03;;;0.05;100.00
12475;BME280;6302;42.624;23.334;2023-01-29T09:45:48;93569.72;;;0.12;100.00
12475;BME280;6302;42.624;23.334;2023-01-29T09:48:17;93564.03;;;0.10;100.00
12475;BME280;6302;42.624;23.334;2023-01-29T09:50:49;93560.75;;;0.01;100.00
12475;BME280;6302;42.624;23.334;2023-01-29T09:53:23;93564.91;;;0.02;100.00
12475;BME280;6302;42.624;23.334;2023-01-29T09:55:58;93556.22;;;0.10;100.00
12475;BME280;6302;42.624;23.334;2023-01-29T09:58:30;93558.84;;;0.10;100.00
12475;BME280;6302;42.624;23.334;2023-01-29T10:01:05;93556.22;;;0.10;100.00
12475;BME280;6302;42.624;23.334;2023-01-29T10:03:47;93554.34;;;-0.02;100.00
12475;BME280;6302;42.624;23.334;2023-01-29T10:06:30;93557.03;;;-0.10;100.00
12475;BME280;6302;42.624;23.334;2023-01-29T10:09:29;93544.38;;;0.00;100.00
12475;BME280;6302;42.624;23.334;2023-01-29T10:12:10;93547.50;;;-0.06;100.00
12475;BME280;6302;42.624;23.334;2023-01-29T10:14:47;93538.53;;;0.04;100.00
12475;BME280;6302;42.624;23.334;2023-01-29T10:17:30;93543.41;;;0.05;100.00
12475;BME280;6302;42.624;23.334;2023-01-29T10:20:12;93548.38;;;-0.02;100.00
12475;BME280;6302;42.624;23.334;2023-01-29T10:22:57;93544.69;;;-0.01;100.00
12475;BME280;6302;42.624;23.334;2023-01-29T10:25:28;93535.28;;;0.07;100.00
12475;BME280;6302;42.624;23.334;2023-01-29T10:27:57;93536.53;;;0.00;100.00
12475;BME280;6302;42.624;23.334;2023-01-29T10:30:31;93530.13;;;-0.02;100.00
12475;BME280;6302;42.624;23.334;2023-01-29T10:33:01;93535.63;;;-0.16;100.00
12475;BME280;6302;42.624;23.334;2023-01-29T10:35:32;93525.50;;;-0.17;100.00
12475;BME280;6302;42.624;23.334;2023-01-29T10:38:14;93531.63;;;-0.13;100.00
12475;BME280;6302;42.624;23.334;2023-01-29T10:40:47;93522.50;;;-0.07;100.00
12475;BME280;6302;42.624;23.334;2023-01-29T10:43:22;93525.25;;;-0.24;100.00
12475;BME280;6302;42.624;23.334;2023-01-29T10:46:06;93531.56;;;-0.25;100.00
12475;BME280;6302;42.624;23.334;2023-01-29T10:48:56;93524.44;;;-0.16;100.00
12475;BME280;6302;42.624;23.334;2023-01-29T10:51:39;93531.66;;;-0.22;100.00
12475;BME280;6302;42.624;23.334;2023-01-29T10:54:24;93523.75;;;-0.25;100.00
12475;BME280;6302;42.624;23.334;2023-01-29T10:57:04;93518.03;;;-0.19;100.00
12475;BME280;6302;42.624;23.334;2023-01-29T10:59:46;93521.69;;;-0.20;100.00
12475;BME280;6302;42.624;23.334;2023-01-29T11:02:19;93516.75;;;-0.13;100.00
12475;BME280;6302;42.624;23.334;2023-01-29T11:04:47;93515.59;;;-0.24;100.00
12475;BME280;6302;42.624;23.334;2023-01-29T11:07:15;93506.78;;;-0.31;100.00
12475;BME280;6302;42.624;23.334;2023-01-29T11:09:50;93516.38;;;-0.23;100.00
12475;BME280;6302;42.624;23.334;2023-01-29T11:12:21;93510.28;;;-0.27;100.00
12475;BME280;6302;42.624;23.334;2023-01-29T11:14:54;93504.03;;;-0.14;100.00
12475;BME280;6302;42.624;23.334;2023-01-29T11:17:24;93502.38;;;-0.19;100.00
12475;BME280;6302;42.624;23.334;2023-01-29T11:19:53;93508.75;;;-0.08;100.00
12475;BME280;6302;42.624;23.334;2023-01-29T11:22:22;93501.06;;;0.08;100.00
12475;BME280;6302;42.624;23.334;2023-01-29T11:25:08;93506.78;;;0.22;100.00
12475;BME280;6302;42.624;23.334;2023-01-29T11:27:42;93493.75;;;0.22;100.00
12475;BME280;6302;42.624;23.334;2023-01-29T11:30:15;93496.56;;;0.17;100.00
12475;BME280;6302;42.624;23.334;2023-01-29T11:32:43;93482.78;;;0.17;100.00
12475;BME280;6302;42.624;23.334;2023-01-29T11:35:20;93495.38;;;0.15;100.00
12475;BME280;6302;42.624;23.334;2023-01-29T11:37:47;93487.88;;;0.25;100.00
12475;BME280;6302;42.624;23.334;2023-01-29T11:40:45;93485.16;;;0.22;100.00
12475;BME280;6302;42.624;23.334;2023-01-29T11:43:18;93477.03;;;0.35;100.00
12475;BME280;6302;42.624;23.334;2023-01-29T11:45:45;93473.94;;;0.42;100.00
12475;BME280;6302;42.624;23.334;2023-01-29T11:48:14;93463.34;;;0.26;100.00
12475;BME280;6302;42.624;23.334;2023-01-29T11:50:42;93470.06;;;0.27;100.00
12475;BME280;6302;42.624;23.334;2023-01-29T11:53:37;93462.25;;;0.27;100.00
12475;BME280;6302;42.624;23.334;2023-01-29T11:56:19;93468.16;;;0.48;100.00
12475;BME280;6302;42.624;23.334;2023-01-29T11:58:48;93472.06;;;0.54;100.00
12475;BME280;6302;42.624;23.334;2023-01-29T12:01:17;93470.88;;;0.52;100.00
12475;BME280;6302;42.624;23.334;2023-01-29T12:03:50;93476.09;;;0.52;100.00
12475;BME280;6302;42.624;23.334;2023-01-29T12:06:21;93473.19;;;0.53;100.00
12475;BME280;6302;42.624;23.334;2023-01-29T12:08:54;93471.44;;;0.57;100.00
12475;BME280;6302;42.624;23.334;2023-01-29T12:11:29;93468.94;;;0.61;100.00
12475;BME280;6302;42.624;23.334;2023-01-29T12:13:57;93461.97;;;0.41;100.00
12475;BME280;6302;42.624;23.334;2023-01-29T12:16:27;93460.44;;;0.40;100.00
12475;BME280;6302;42.624;23.334;2023-01-29T12:19:03;93455.34;;;0.43;100.00
12475;BME280;6302;42.624;23.334;2023-01-29T12:21:34;93455.78;;;0.57;100.00
12475;BME280;6302;42.624;23.334;2023-01-29T12:24:11;93466.91;;;0.67;100.00
12475;BME280;6302;42.624;23.334;2023-01-29T12:26:47;93453.38;;;0.40;100.00
12475;BME280;6302;42.624;23.334;2023-01-29T12:29:23;93462.84;;;0.57;100.00
12475;BME280;6302;42.624;23.334;2023-01-29T12:31:59;93464.03;;;0.59;100.00
12475;BME280;6302;42.624;23.334;2023-01-29T12:34:35;93478.16;;;0.46;100.00
12475;BME280;6302;42.624;23.334;2023-01-29T12:37:12;93468.25;;;0.52;100.00
12475;BME280;6302;42.624;23.334;2023-01-29T12:39:42;93466.97;;;0.58;100.00
12475;BME280;6302;42.624;23.334;2023-01-29T12:42:14;93474.69;;;0.54;100.00
12475;BME280;6302;42.624;23.334;2023-01-29T12:44:45;93473.72;;;0.47;100.00
12475;BME280;6302;42.624;23.334;2023-01-29T12:47:16;93474.34;;;0.44;100.00
12475;BME280;6302;42.624;23.334;2023-01-29T12:49:49;93465.13;;;0.46;100.00
12475;BME280;6302;42.624;23.334;2023-01-29T12:52:22;93468.03;;;0.45;100.00
12475;BME280;6302;42.624;23.334;2023-01-29T12:54:53;93465.34;;;0.53;100.00
12475;BME280;6302;42.624;23.334;2023-01-29T12:57:28;93463.38;;;0.50;100.00
12475;BME280;6302;42.624;23.334;2023-01-29T13:00:02;93458.50;;;0.49;100.00
12475;BME280;6302;42.624;23.334;2023-01-29T13:02:32;93465.13;;;0.46;100.00
12475;BME280;6302;42.624;23.334;2023-01-29T13:05:04;93476.00;;;0.48;100.00
12475;BME280;6302;42.624;23.334;2023-01-29T13:07:36;93466.81;;;0.30;100.00
12475;BME280;6302;42.624;23.334;2023-01-29T13:10:09;93460.19;;;0.21;100.00
12475;BME280;6302;42.624;23.334;2023-01-29T13:12:48;93470.41;;;0.26;100.00
12475;BME280;6302;42.624;23.334;2023-01-29T13:15:21;93455.75;;;0.33;100.00